sensor_id;sensor_type;location;lat;lon;timestamp;pressure;altitude;pressure_sealevel;temperature;humidity
75543;BME280;64129;53.508;10.476;2022-10-29T00:00:22;101454.50;;;16.48;76.78
75543;BME280;64129;53.508;10.476;2022-10-29T00:02:47;101453.50;;;16.51;76.36
75543;BME280;64129;53.508;10.476;2022-10-29T00:05:13;101453.78;;;16.43;77.02
75543;BME280;64129;53.508;10.476;2022-10-29T00:07:38;101456.38;;;16.46;76.75
75543;BME280;64129;53.508;10.476;2022-10-29T00:10:04;101460.38;;;16.35;77.79
75543;BME280;64129;53.508;10.476;2022-10-29T00:12:29;101462.84;;;16.41;77.10
75543;BME280;64129;53.508;10.476;2022-10-29T00:14:55;101468.59;;;16.29;77.99
75543;BME280;64129;53.508;10.476;2022-10-29T00:17:20;101472.91;;;16.34;77.00
75543;BME280;64129;53.508;10.476;2022-10-29T00:19:45;101470.53;;;16.25;77.46
75543;BME280;64129;53.508;10.476;2022-10-29T00:22:11;101476.06;;;16.20;77.94
75543;BME280;64129;53.508;10.476;2022-10-29T00:24:36;101475.13;;;16.21;78.02
75543;BME280;64129;53.508;10.476;2022-10-29T00:27:01;101481.53;;;16.17;78.14
75543;BME280;64129;53.508;10.476;2022-10-29T00:29:27;101483.50;;;16.12;77.89
75543;BME280;64129;53.508;10.476;2022-10-29T00:31:52;101480.97;;;16.08;77.88
75543;BME280;64129;53.508;10.476;2022-10-29T00:34:17;101482.50;;;16.15;77.10
75543;BME280;64129;53.508;10.476;2022-10-29T00:36:43;101490.06;;;16.04;77.94
75543;BME280;64129;53.508;10.476;2022-10-29T00:39:13;101494.38;;;16.08;77.87
75543;BME280;64129;53.508;10.476;2022-10-29T00:41:39;101486.34;;;16.08;77.24
75543;BME280;64129;53.508;10.476;2022-10-29T00:46:40;101498.75;;;15.84;78.21
75543;BME280;64129;53.508;10.476;2022-10-29T00:49:06;101500.34;;;15.89;78.20
75543;BME280;64129;53.508;10.476;2022-10-29T00:51:32;101501.16;;;15.91;77.85
75543;BME280;64129;53.508;10.476;2022-10-29T00:54:01;101498.78;;;15.82;78.65
75543;BME280;64129;53.508;10.476;2022-10-29T00:56:30;101513.47;;;15.71;78.64
75543;BME280;64129;53.508;10.476;2022-10-29T00:58:58;101513.16;;;15.80;77.60
75543;BME280;64129;53.508;10.476;2022-10-29T01:01:24;101521.41;;;15.74;77.80
75543;BME280;64129;53.508;10.476;2022-10-29T01:03:50;101520.28;;;15.81;78.34
75543;BME280;64129;53.508;10.476;2022-10-29T01:06:17;101523.31;;;15.70;79.00
75543;BME280;64129;53.508;10.476;2022-10-29T01:08:43;101519.81;;;15.68;77.68
75543;BME280;64129;53.508;10.476;2022-10-29T01:17:08;101527.19;;;15.60;79.43
75543;BME280;64129;53.508;10.476;2022-10-29T01:19:59;101528.00;;;15.64;78.13
75543;BME280;64129;53.508;10.476;2022-10-29T01:28:36;101528.38;;;15.50;79.10
75543;BME280;64129;53.508;10.476;2022-10-29T01:36:32;101538.81;;;15.59;79.27
75543;BME280;64129;53.508;10.476;2022-10-29T01:39:07;101546.84;;;15.59;77.91
75543;BME280;64129;53.508;10.476;2022-10-29T01:41:48;101545.00;;;15.63;78.72
75543;BME280;64129;53.508;10.476;2022-10-29T01:46:54;101546.94;;;15.56;79.07
75543;BME280;64129;53.508;10.476;2022-10-29T01:49:27;101546.28;;;15.48;78.21
75543;BME280;64129;53.508;10.476;2022-10-29T01:51:54;101546.19;;;15.51;79.34
75543;BME280;64129;53.508;10.476;2022-10-29T01:54:20;101543.25;;;15.60;78.83
75543;BME280;64129;53.508;10.476;2022-10-29T01:56:56;101549.16;;;15.42;80.22
75543;BME280;64129;53.508;10.476;2022-10-29T01:59:23;101547.22;;;15.47;78.17
75543;BME280;64129;53.508;10.476;2022-10-29T02:07:32;101553.53;;;15.44;79.42
75543;BME280;64129;53.508;10.476;2022-10-29T02:10:23;101560.84;;;15.39;79.62
75543;BME280;64129;53.508;10.476;2022-10-29T02:12:54;101559.44;;;15.26;79.91
75543;BME280;64129;53.508;10.476;2022-10-29T02:15:29;101554.81;;;15.33;79.66
75543;BME280;64129;53.508;10.476;2022-10-29T02:17:59;101562.44;;;15.15;80.35
75543;BME280;64129;53.508;10.476;2022-10-29T02:20:25;101563.53;;;15.08;80.57
75543;BME280;64129;53.508;10.476;2022-10-29T02:22:50;101551.75;;;15.15;78.65
75543;BME280;64129;53.508;10.476;2022-10-29T02:25:16;101557.91;;;15.17;79.63
75543;BME280;64129;53.508;10.476;2022-10-29T02:27:41;101564.28;;;15.13;80.01
75543;BME280;64129;53.508;10.476;2022-10-29T02:30:07;101557.53;;;15.00;79.94
75543;BME280;64129;53.508;10.476;2022-10-29T02:32:32;101555.72;;;15.02;80.39
75543;BME280;64129;53.508;10.476;2022-10-29T02:34:59;101557.53;;;15.00;80.47
75543;BME280;64129;53.508;10.476;2022-10-29T02:37:25;101561.19;;;14.97;81.02
75543;BME280;64129;53.508;10.476;2022-10-29T02:39:50;101554.91;;;14.98;80.56
75543;BME280;64129;53.508;10.476;2022-10-29T02:42:15;101548.69;;;14.98;81.25
75543;BME280;64129;53.508;10.476;2022-10-29T02:44:41;101548.69;;;14.98;79.95
75543;BME280;64129;53.508;10.476;2022-10-29T02:47:06;101544.81;;;15.08;79.44
75543;BME280;64129;53.508;10.476;2022-10-29T02:49:31;101548.41;;;15.07;80.05
75543;BME280;64129;53.508;10.476;2022-10-29T02:51:56;101545.94;;;15.01;80.13
75543;BME280;64129;53.508;10.476;2022-10-29T02:54:22;101546.94;;;14.97;81.05
75543;BME280;64129;53.508;10.476;2022-10-29T02:56:47;101548.69;;;14.98;80.79
75543;BME280;64129;53.508;10.476;2022-10-29T02:59:13;101544.81;;;15.08;80.92
75543;BME280;64129;53.508;10.476;2022-10-29T03:01:38;101540.34;;;15.09;80.99
75543;BME280;64129;53.508;10.476;2022-10-29T03:04:03;101529.56;;;15.12;81.11
75543;BME280;64129;53.508;10.476;2022-10-29T03:06:29;101527.09;;;15.04;80.99
75543;BME280;64129;53.508;10.476;2022-10-29T03:08:54;101533.25;;;15.08;80.79
75543;BME280;64129;53.508;10.476;2022-10-29T03:11:19;101544.63;;;15.14;79.77
75543;BME280;64129;53.508;10.476;2022-10-29T03:13:45;101552.84;;;15.08;81.12
75543;BME280;64129;53.508;10.476;2022-10-29T03:16:10;101552.28;;;14.97;81.25
75543;BME280;64129;53.508;10.476;2022-10-29T03:18:36;101543.84;;;15.11;80.58
75543;BME280;64129;53.508;10.476;2022-10-29T03:21:01;101557.19;;;15.12;80.51
75543;BME280;64129;53.508;10.476;2022-10-29T03:23:26;101551.84;;;15.12;80.44
75543;BME280;64129;53.508;10.476;2022-10-29T03:25:53;101551.75;;;15.15;80.23
75543;BME280;64129;53.508;10.476;2022-10-29T03:28:20;101553.13;;;14.99;80.88
75543;BME280;64129;53.508;10.476;2022-10-29T03:30:46;101557.38;;;15.06;79.49
75543;BME280;64129;53.508;10.476;2022-10-29T03:33:11;101557.09;;;15.15;80.23
75543;BME280;64129;53.508;10.476;2022-10-29T03:35:36;101557.19;;;15.12;80.54
75543;BME280;64129;53.508;10.476;2022-10-29T03:38:02;101556.75;;;14.96;81.07
75543;BME280;64129;53.508;10.476;2022-10-29T03:40:27;101557.19;;;15.12;79.95
75543;BME280;64129;53.508;10.476;2022-10-29T03:42:53;101556.53;;;15.04;81.21
75543;BME280;64129;53.508;10.476;2022-10-29T03:45:18;101558.44;;;15.01;80.90
75543;BME280;64129;53.508;10.476;2022-10-29T03:47:43;101558.59;;;14.94;81.37
75543;BME280;64129;53.508;10.476;2022-10-29T03:50:09;101552.19;;;15.00;80.73
75543;BME280;64129;53.508;10.476;2022-10-29T03:52:35;101550.69;;;14.90;80.56
75543;BME280;64129;53.508;10.476;2022-10-29T03:55:00;101554.91;;;14.98;79.20
75543;BME280;64129;53.508;10.476;2022-10-29T03:57:26;101541.69;;;14.94;81.09
75543;BME280;64129;53.508;10.476;2022-10-29T03:59:51;101547.03;;;14.94;80.63
75543;BME280;64129;53.508;10.476;2022-10-29T04:02:16;101553.34;;;14.90;80.37
75543;BME280;64129;53.508;10.476;2022-10-29T04:04:42;101558.28;;;14.74;80.30
75543;BME280;64129;53.508;10.476;2022-10-29T04:07:07;101561.56;;;14.84;80.04
75543;BME280;64129;53.508;10.476;2022-10-29T04:09:32;101561.03;;;14.71;79.98
75543;BME280;64129;53.508;10.476;2022-10-29T04:11:58;101551.25;;;14.70;80.71
75543;BME280;64129;53.508;10.476;2022-10-29T04:14:23;101543.53;;;14.59;80.04
75543;BME280;64129;53.508;10.476;2022-10-29T04:16:48;101550.50;;;14.65;79.78
75543;BME280;64129;53.508;10.476;2022-10-29T04:19:14;101551.97;;;14.44;80.52
75543;BME280;64129;53.508;10.476;2022-10-29T04:21:39;101562.78;;;14.38;80.28
75543;BME280;64129;53.508;10.476;2022-10-29T04:24:05;101556.63;;;14.34;80.03
75543;BME280;64129;53.508;10.476;2022-10-29T04:26:30;101545.06;;;14.34;79.52
75543;BME280;64129;53.508;10.476;2022-10-29T04:28:55;101542.19;;;14.42;79.51
75543;BME280;64129;53.508;10.476;2022-10-29T04:31:21;101538.84;;;14.33;79.71
75543;BME280;64129;53.508;10.476;2022-10-29T04:33:46;101534.69;;;14.22;79.89
75543;BME280;64129;53.508;10.476;2022-10-29T04:36:11;101540.28;;;14.13;80.68
75543;BME280;64129;53.508;10.476;2022-10-29T04:38:37;101551.78;;;14.15;80.35
75543;BME280;64129;53.508;10.476;2022-10-29T04:41:03;101537.41;;;14.20;79.94
75543;BME280;64129;53.508;10.476;2022-10-29T04:43:29;101543.81;;;14.13;80.44
75543;BME280;64129;53.508;10.476;2022-10-29T04:45:56;101563.41;;;14.14;80.38
75543;BME280;64129;53.508;10.476;2022-10-29T04:48:23;101579.41;;;14.14;80.55
75543;BME280;64129;53.508;10.476;2022-10-29T04:50:49;101581.09;;;14.18;80.73
75543;BME280;64129;53.508;10.476;2022-10-29T04:53:15;101572.16;;;14.19;80.57
75543;BME280;64129;53.508;10.476;2022-10-29T04:55:40;101577.75;;;14.10;81.48
75543;BME280;64129;53.508;10.476;2022-10-29T04:58:09;101572.09;;;14.22;79.62
75543;BME280;64129;53.508;10.476;2022-10-29T05:00:36;101582.25;;;14.08;82.10
75543;BME280;64129;53.508;10.476;2022-10-29T05:03:01;101569.69;;;14.11;82.49
75543;BME280;64129;53.508;10.476;2022-10-29T05:05:26;101563.44;;;14.12;82.24
75543;BME280;64129;53.508;10.476;2022-10-29T05:08:00;101551.63;;;14.22;82.55
75543;BME280;64129;53.508;10.476;2022-10-29T05:10:27;101549.03;;;14.18;81.13
75543;BME280;64129;53.508;10.476;2022-10-29T05:13:01;101558.06;;;14.14;82.81
75543;BME280;64129;53.508;10.476;2022-10-29T05:15:27;101556.53;;;14.03;83.89
75543;BME280;64129;53.508;10.476;2022-10-29T05:17:54;101556.22;;;14.16;82.89
75543;BME280;64129;53.508;10.476;2022-10-29T05:20:19;101569.22;;;13.95;83.96
75543;BME280;64129;53.508;10.476;2022-10-29T05:22:45;101567.28;;;14.00;83.34
75543;BME280;64129;53.508;10.476;2022-10-29T05:25:10;101574.41;;;14.01;82.49
75543;BME280;64129;53.508;10.476;2022-10-29T05:27:35;101585.75;;;14.10;81.93
75543;BME280;64129;53.508;10.476;2022-10-29T05:30:01;101589.47;;;14.04;81.43
75543;BME280;64129;53.508;10.476;2022-10-29T05:32:29;101583.41;;;13.97;81.28
75543;BME280;64129;53.508;10.476;2022-10-29T05:34:55;101586.28;;;13.88;80.90
75543;BME280;64129;53.508;10.476;2022-10-29T05:37:20;101571.47;;;13.75;82.45
75543;BME280;64129;53.508;10.476;2022-10-29T05:39:49;101581.25;;;13.74;81.68
75543;BME280;64129;53.508;10.476;2022-10-29T05:42:14;101585.50;;;13.83;82.46
75543;BME280;64129;53.508;10.476;2022-10-29T05:44:39;101582.22;;;13.72;82.83
75543;BME280;64129;53.508;10.476;2022-10-29T05:47:05;101582.22;;;13.72;82.48
75543;BME280;64129;53.508;10.476;2022-10-29T05:49:30;101581.25;;;13.74;82.08
75543;BME280;64129;53.508;10.476;2022-10-29T05:51:56;101578.66;;;13.71;81.99
75543;BME280;64129;53.508;10.476;2022-10-29T05:54:21;101581.28;;;13.73;81.14
75543;BME280;64129;53.508;10.476;2022-10-29T05:56:47;101576.06;;;13.68;80.69
75543;BME280;64129;53.508;10.476;2022-10-29T05:59:12;101569.69;;;13.74;80.88
75543;BME280;64129;53.508;10.476;2022-10-29T06:01:37;101576.97;;;13.67;81.50
75543;BME280;64129;53.508;10.476;2022-10-29T06:04:03;101580.84;;;13.53;83.41
75543;BME280;64129;53.508;10.476;2022-10-29T06:06:28;101585.88;;;13.68;82.20
75543;BME280;64129;53.508;10.476;2022-10-29T06:08:53;101593.19;;;13.60;82.25
75543;BME280;64129;53.508;10.476;2022-10-29T06:11:19;101593.19;;;13.60;81.16
75543;BME280;64129;53.508;10.476;2022-10-29T06:13:44;101591.41;;;13.59;81.21
75543;BME280;64129;53.508;10.476;2022-10-29T06:16:09;101592.44;;;13.53;81.53
75543;BME280;64129;53.508;10.476;2022-10-29T06:18:35;101596.88;;;13.54;81.29
75543;BME280;64129;53.508;10.476;2022-10-29T06:21:00;101595.88;;;13.58;80.95
75543;BME280;64129;53.508;10.476;2022-10-29T06:23:26;101600.53;;;13.49;81.43
75543;BME280;64129;53.508;10.476;2022-10-29T06:25:52;101603.09;;;13.55;81.40
75543;BME280;64129;53.508;10.476;2022-10-29T06:28:17;101586.16;;;13.56;80.93
75543;BME280;64129;53.508;10.476;2022-10-29T06:30:47;101592.41;;;13.55;80.70
75543;BME280;64129;53.508;10.476;2022-10-29T06:33:13;101589.78;;;13.53;81.63
75543;BME280;64129;53.508;10.476;2022-10-29T06:35:38;101595.25;;;13.46;81.26
75543;BME280;64129;53.508;10.476;2022-10-29T06:38:04;101589.78;;;13.52;80.66
75543;BME280;64129;53.508;10.476;2022-10-29T06:40:29;101595.38;;;13.39;80.76
75543;BME280;64129;53.508;10.476;2022-10-29T06:43:06;101600.66;;;13.42;80.13
75543;BME280;64129;53.508;10.476;2022-10-29T06:45:32;101606.13;;;13.36;80.72
75543;BME280;64129;53.508;10.476;2022-10-29T06:47:58;101611.66;;;13.27;80.11
75543;BME280;64129;53.508;10.476;2022-10-29T06:50:24;101603.56;;;13.32;80.36
75543;BME280;64129;53.508;10.476;2022-10-29T06:53:04;101617.13;;;13.21;80.65
75543;BME280;64129;53.508;10.476;2022-10-29T06:55:30;101609.47;;;14.93;80.94
75543;BME280;64129;53.508;10.476;2022-10-29T07:00:26;101600.66;;;14.88;77.48
75543;BME280;64129;53.508;10.476;2022-10-29T07:02:52;101595.75;;;14.73;77.83
75543;BME280;64129;53.508;10.476;2022-10-29T07:05:17;101593.16;;;15.02;76.67
75543;BME280;64129;53.508;10.476;2022-10-29T07:07:43;101599.53;;;14.98;75.60
75543;BME280;64129;53.508;10.476;2022-10-29T07:10:08;101620.13;;;14.25;76.60
75543;BME280;64129;53.508;10.476;2022-10-29T07:12:43;101626.72;;;13.71;81.42
75543;BME280;64129;53.508;10.476;2022-10-29T07:15:09;101625.13;;;13.63;82.01
75543;BME280;64129;53.508;10.476;2022-10-29T07:17:35;101633.22;;;13.60;82.52
75543;BME280;64129;53.508;10.476;2022-10-29T07:20:00;101637.50;;;13.67;82.40
75543;BME280;64129;53.508;10.476;2022-10-29T07:22:26;101646.41;;;13.66;82.35
75543;BME280;64129;53.508;10.476;2022-10-29T07:24:51;101638.00;;;13.42;83.75
75543;BME280;64129;53.508;10.476;2022-10-29T07:27:17;101638.94;;;13.41;83.74
75543;BME280;64129;53.508;10.476;2022-10-29T07:29:42;101645.16;;;13.42;83.92
75543;BME280;64129;53.508;10.476;2022-10-29T07:32:07;101648.44;;;13.55;82.13
75543;BME280;64129;53.508;10.476;2022-10-29T07:34:33;101650.50;;;13.40;85.09
75543;BME280;64129;53.508;10.476;2022-10-29T07:36:58;101649.63;;;13.40;84.02
75543;BME280;64129;53.508;10.476;2022-10-29T07:39:23;101652.66;;;13.66;82.87
75543;BME280;64129;53.508;10.476;2022-10-29T07:41:48;101651.72;;;13.67;84.29
75543;BME280;64129;53.508;10.476;2022-10-29T07:44:14;101656.22;;;13.65;84.24
75543;BME280;64129;53.508;10.476;2022-10-29T07:46:39;101647.97;;;13.76;82.71
75543;BME280;64129;53.508;10.476;2022-10-29T07:49:04;101648.19;;;13.67;84.22
75543;BME280;64129;53.508;10.476;2022-10-29T07:51:30;101648.16;;;13.68;83.17
75543;BME280;64129;53.508;10.476;2022-10-29T07:53:55;101654.41;;;13.67;84.63
75543;BME280;64129;53.508;10.476;2022-10-29T07:56:20;101658.59;;;13.37;86.22
75543;BME280;64129;53.508;10.476;2022-10-29T07:58:46;101662.31;;;13.72;84.84
75543;BME280;64129;53.508;10.476;2022-10-29T08:01:11;101665.81;;;13.74;83.88
75543;BME280;64129;53.508;10.476;2022-10-29T08:03:36;101668.72;;;13.63;85.28
75543;BME280;64129;53.508;10.476;2022-10-29T08:06:02;101672.50;;;13.53;85.79
75543;BME280;64129;53.508;10.476;2022-10-29T08:08:27;101663.50;;;13.59;86.04
75543;BME280;64129;53.508;10.476;2022-10-29T08:10:59;101669.53;;;13.67;85.59
75543;BME280;64129;53.508;10.476;2022-10-29T08:13:25;101675.69;;;13.70;85.92
75543;BME280;64129;53.508;10.476;2022-10-29T08:15:51;101676.34;;;13.80;86.04
75543;BME280;64129;53.508;10.476;2022-10-29T08:18:17;101666.59;;;13.79;85.44
75543;BME280;64129;53.508;10.476;2022-10-29T08:20:42;101673.66;;;13.82;85.15
75543;BME280;64129;53.508;10.476;2022-10-29T08:23:08;101678.63;;;13.98;85.49
75543;BME280;64129;53.508;10.476;2022-10-29T08:25:33;101672.31;;;14.02;85.55
75543;BME280;64129;53.508;10.476;2022-10-29T08:28:02;101672.88;;;14.15;84.51
75543;BME280;64129;53.508;10.476;2022-10-29T08:30:28;101664.00;;;14.15;84.36
75543;BME280;64129;53.508;10.476;2022-10-29T08:32:53;101661.06;;;14.27;83.92
75543;BME280;64129;53.508;10.476;2022-10-29T08:35:19;101666.31;;;14.30;84.64
75543;BME280;64129;53.508;10.476;2022-10-29T08:37:44;101659.03;;;13.99;84.32
75543;BME280;64129;53.508;10.476;2022-10-29T08:43:40;101648.88;;;14.14;84.31
75543;BME280;64129;53.508;10.476;2022-10-29T08:46:20;101647.06;;;14.16;84.65
75543;BME280;64129;53.508;10.476;2022-10-29T08:48:53;101640.09;;;14.09;84.86
75543;BME280;64129;53.508;10.476;2022-10-29T08:51:31;101631.03;;;14.16;83.08
75543;BME280;64129;53.508;10.476;2022-10-29T08:53:58;101617.31;;;14.31;83.74
75543;BME280;64129;53.508;10.476;2022-10-29T08:56:27;101616.66;;;14.20;84.03
75543;BME280;64129;53.508;10.476;2022-10-29T09:01:28;101635.28;;;14.24;83.80
75543;BME280;64129;53.508;10.476;2022-10-29T09:03:54;101639.59;;;14.30;84.24
75543;BME280;64129;53.508;10.476;2022-10-29T09:06:30;101622.72;;;14.28;84.51
75543;BME280;64129;53.508;10.476;2022-10-29T09:17:35;101613.78;;;14.29;84.98
75543;BME280;64129;53.508;10.476;2022-10-29T09:23:01;101640.47;;;14.30;84.62
75543;BME280;64129;53.508;10.476;2022-10-29T09:25:32;101637.84;;;14.29;84.53
75543;BME280;64129;53.508;10.476;2022-10-29T09:30:41;101640.59;;;14.26;85.50
75543;BME280;64129;53.508;10.476;2022-10-29T09:33:16;101625.41;;;14.28;85.50
75543;BME280;64129;53.508;10.476;2022-10-29T09:35:45;101616.97;;;14.45;84.13
75543;BME280;64129;53.508;10.476;2022-10-29T09:38:19;101628.59;;;14.42;84.55
75543;BME280;64129;53.508;10.476;2022-10-29T09:40:46;101612.47;;;14.47;84.56
75543;BME280;64129;53.508;10.476;2022-10-29T09:43:36;101621.22;;;14.53;84.47
75543;BME280;64129;53.508;10.476;2022-10-29T09:46:28;101616.53;;;14.63;83.96
75543;BME280;64129;53.508;10.476;2022-10-29T09:51:55;101638.72;;;14.66;83.47
75543;BME280;64129;53.508;10.476;2022-10-29T09:54:24;101623.97;;;14.50;84.51
75543;BME280;64129;53.508;10.476;2022-10-29T09:56:50;101624.91;;;14.82;82.55
75543;BME280;64129;53.508;10.476;2022-10-29T09:59:24;101618.19;;;14.67;84.08
75543;BME280;64129;53.508;10.476;2022-10-29T10:01:51;101619.91;;;14.70;84.15
75543;BME280;64129;53.508;10.476;2022-10-29T10:04:25;101619.13;;;14.98;82.40
75543;BME280;64129;53.508;10.476;2022-10-29T10:07:06;101591.50;;;14.98;82.48
75543;BME280;64129;53.508;10.476;2022-10-29T10:09:52;101579.91;;;14.97;82.74
75543;BME280;64129;53.508;10.476;2022-10-29T10:12:19;101585.22;;;14.99;82.43
75543;BME280;64129;53.508;10.476;2022-10-29T10:14:46;101593.16;;;15.02;82.64
75543;BME280;64129;53.508;10.476;2022-10-29T10:17:12;101593.94;;;15.06;81.77
75543;BME280;64129;53.508;10.476;2022-10-29T10:19:43;101590.34;;;15.07;82.47
75543;BME280;64129;53.508;10.476;2022-10-29T10:22:20;101591.53;;;15.27;81.76
75543;BME280;64129;53.508;10.476;2022-10-29T10:24:46;101590.81;;;15.21;81.55
75543;BME280;64129;53.508;10.476;2022-10-29T10:32:27;101588.50;;;15.40;81.29
75543;BME280;64129;53.508;10.476;2022-10-29T10:34:53;101597.72;;;15.29;81.78
75543;BME280;64129;53.508;10.476;2022-10-29T10:37:19;101593.81;;;15.10;81.86
75543;BME280;64129;53.508;10.476;2022-10-29T10:42:25;101596.22;;;15.19;81.98
75543;BME280;64129;53.508;10.476;2022-10-29T10:47:35;101589.38;;;15.40;81.32
75543;BME280;64129;53.508;10.476;2022-10-29T10:52:47;101588.09;;;15.52;81.44
75543;BME280;64129;53.508;10.476;2022-10-29T10:57:54;101577.25;;;15.58;81.34
75543;BME280;64129;53.508;10.476;2022-10-29T11:00:21;101575.31;;;15.63;80.62
75543;BME280;64129;53.508;10.476;2022-10-29T11:05:52;101566.06;;;15.73;80.92
75543;BME280;64129;53.508;10.476;2022-10-29T11:08:37;101567.03;;;15.99;80.54
75543;BME280;64129;53.508;10.476;2022-10-29T11:11:11;101568.03;;;15.96;80.33
75543;BME280;64129;53.508;10.476;2022-10-29T11:13:38;101572.09;;;16.08;79.80
75543;BME280;64129;53.508;10.476;2022-10-29T11:16:15;101564.50;;;16.20;79.07
75543;BME280;64129;53.508;10.476;2022-10-29T11:18:52;101561.16;;;16.14;79.63
75543;BME280;64129;53.508;10.476;2022-10-29T11:21:48;101564.56;;;16.19;78.91
75543;BME280;64129;53.508;10.476;2022-10-29T11:24:22;101563.47;;;16.25;79.20
75543;BME280;64129;53.508;10.476;2022-10-29T11:26:56;101560.56;;;16.32;78.91
75543;BME280;64129;53.508;10.476;2022-10-29T11:29:34;101564.56;;;16.19;79.42
75543;BME280;64129;53.508;10.476;2022-10-29T11:32:13;101563.13;;;16.87;77.31
75543;BME280;64129;53.508;10.476;2022-10-29T11:34:55;101552.91;;;16.96;76.50
75543;BME280;64129;53.508;10.476;2022-10-29T11:40:13;101539.78;;;16.89;76.13
75543;BME280;64129;53.508;10.476;2022-10-29T11:42:40;101530.75;;;16.91;77.18
75543;BME280;64129;53.508;10.476;2022-10-29T11:45:10;101532.00;;;17.51;75.04
75543;BME280;64129;53.508;10.476;2022-10-29T11:48:27;101529.41;;;17.26;75.00
75543;BME280;64129;53.508;10.476;2022-10-29T11:50:44;101527.81;;;16.97;76.67
75543;BME280;64129;53.508;10.476;2022-10-29T11:53:28;101523.09;;;17.51;73.99
75543;BME280;64129;53.508;10.476;2022-10-29T12:01:08;101530.81;;;17.58;73.69
75543;BME280;64129;53.508;10.476;2022-10-29T12:03:56;101521.56;;;17.65;74.04
75543;BME280;64129;53.508;10.476;2022-10-29T12:10:02;101523.72;;;17.57;74.19
75543;BME280;64129;53.508;10.476;2022-10-29T12:12:52;101518.09;;;17.63;73.51
75543;BME280;64129;53.508;10.476;2022-10-29T12:15:26;101517.66;;;17.52;74.06
75543;BME280;64129;53.508;10.476;2022-10-29T12:18:29;101508.59;;;17.55;74.08
75543;BME280;64129;53.508;10.476;2022-10-29T12:26:07;101505.81;;;17.34;74.48
75543;BME280;64129;53.508;10.476;2022-10-29T12:28:59;101493.63;;;17.26;75.24
75543;BME280;64129;53.508;10.476;2022-10-29T12:31:41;101498.31;;;17.21;75.23
75543;BME280;64129;53.508;10.476;2022-10-29T12:34:27;101501.69;;;17.26;74.90
75543;BME280;64129;53.508;10.476;2022-10-29T12:37:12;101500.41;;;17.12;75.45
75543;BME280;64129;53.508;10.476;2022-10-29T12:39:48;101497.81;;;17.33;75.06
75543;BME280;64129;53.508;10.476;2022-10-29T12:42:24;101490.34;;;17.41;74.62
75543;BME280;64129;53.508;10.476;2022-10-29T12:44:59;101490.53;;;17.36;75.04
75543;BME280;64129;53.508;10.476;2022-10-29T12:47:42;101483.47;;;17.56;74.52
75543;BME280;64129;53.508;10.476;2022-10-29T12:53:03;101478.97;;;17.56;74.23
75543;BME280;64129;53.508;10.476;2022-10-29T12:55:32;101476.66;;;17.70;74.10
75543;BME280;64129;53.508;10.476;2022-10-29T13:01:03;101480.28;;;17.69;73.31
75543;BME280;64129;53.508;10.476;2022-10-29T13:09:26;101464.34;;;18.07;72.57
75543;BME280;64129;53.508;10.476;2022-10-29T13:11:53;101463.81;;;18.19;71.85
75543;BME280;64129;53.508;10.476;2022-10-29T13:16:54;101466.47;;;17.99;72.84
75543;BME280;64129;53.508;10.476;2022-10-29T13:24:38;101462.06;;;18.18;71.10
75543;BME280;64129;53.508;10.476;2022-10-29T13:29:48;101458.97;;;18.07;72.51
75543;BME280;64129;53.508;10.476;2022-10-29T13:32:33;101460.91;;;18.03;72.66
75543;BME280;64129;53.508;10.476;2022-10-29T13:35:00;101458.97;;;18.07;72.52
75543;BME280;64129;53.508;10.476;2022-10-29T13:43:04;101460.91;;;18.03;73.42
75543;BME280;64129;53.508;10.476;2022-10-29T13:45:35;101456.19;;;17.88;74.31
75543;BME280;64129;53.508;10.476;2022-10-29T13:48:11;101455.97;;;17.93;73.94
75543;BME280;64129;53.508;10.476;2022-10-29T13:50:41;101460.41;;;17.94;73.01
75543;BME280;64129;53.508;10.476;2022-10-29T13:53:10;101468.63;;;17.91;73.02
75543;BME280;64129;53.508;10.476;2022-10-29T13:55:38;101473.25;;;17.87;73.29
75543;BME280;64129;53.508;10.476;2022-10-29T13:58:34;101472.13;;;17.93;74.25
75543;BME280;64129;53.508;10.476;2022-10-29T14:01:06;101472.91;;;17.74;74.77
75543;BME280;64129;53.508;10.476;2022-10-29T14:03:40;101470.50;;;17.67;75.13
75543;BME280;64129;53.508;10.476;2022-10-29T14:06:18;101464.19;;;17.68;74.45
75543;BME280;64129;53.508;10.476;2022-10-29T14:08:54;101460.97;;;17.58;75.48
75543;BME280;64129;53.508;10.476;2022-10-29T14:11:26;101459.41;;;17.76;75.19
75543;BME280;64129;53.508;10.476;2022-10-29T14:13:58;101452.22;;;17.76;75.43
75543;BME280;64129;53.508;10.476;2022-10-29T14:16:30;101446.34;;;17.65;76.32
75543;BME280;64129;53.508;10.476;2022-10-29T14:18:57;101442.84;;;17.63;76.11
75543;BME280;64129;53.508;10.476;2022-10-29T14:21:25;101442.84;;;17.63;76.05
75543;BME280;64129;53.508;10.476;2022-10-29T14:26:29;101446.03;;;17.74;75.47
75543;BME280;64129;53.508;10.476;2022-10-29T14:28:55;101437.16;;;17.72;75.13
75543;BME280;64129;53.508;10.476;2022-10-29T14:31:24;101436.94;;;17.55;75.79
75543;BME280;64129;53.508;10.476;2022-10-29T14:33:58;101439.22;;;17.64;75.93
75543;BME280;64129;53.508;10.476;2022-10-29T14:36:34;101448.66;;;17.76;75.70
75543;BME280;64129;53.508;10.476;2022-10-29T14:41:39;101446.03;;;17.74;75.66
75543;BME280;64129;53.508;10.476;2022-10-29T14:44:08;101435.28;;;17.74;75.66
75543;BME280;64129;53.508;10.476;2022-10-29T14:46:36;101435.75;;;17.62;76.53
75543;BME280;64129;53.508;10.476;2022-10-29T14:49:11;101439.81;;;17.51;77.31
75543;BME280;64129;53.508;10.476;2022-10-29T14:51:40;101435.41;;;17.71;76.25